Time,TemperatureF,DewpointF,PressureIn,WindDirection,WindDirectionDegrees,WindSpeedMPH,WindSpeedGustMPH,Humidity,HourlyPrecipIn,Conditions,Clouds,dailyrainin,SoftwareType,DateUTC
2013-08-08 00:01:00,71.2,63.6,29.94,ENE,75,3.6,4.6,77,0.00,CLR,SKC,0.00,WeatherDisplay:10.37,2013-08-08 05:01:00,
2013-08-08 00:06:00,71.2,63.6,29.94,NE,44,2.4,3.5,77,0.00,CLR,SKC,0.00,WeatherDisplay:10.37,2013-08-08 05:06:00,
2013-08-08 00:11:00,71.1,63.5,29.94,NE,44,2.7,3.5,77,0.00,CLR,SKC,0.00,WeatherDisplay:10.37,2013-08-08 05:11:00,
2013-08-08 00:16:00,71.0,63.4,29.94,ENE,70,0.9,3.5,77,0.00,CLR,SKC,0.00,WeatherDisplay:10.37,2013-08-08 05:16:00,
2013-08-08 00:21:00,70.9,63.3,29.94,ENE,62,1.9,3.5,77,0.00,CLR,SKC,0.00,WeatherDisplay:10.37,2013-08-08 05:21:00,
2013-08-08 00:26:00,70.9,63.3,29.94,ENE,71,1.7,3.5,77,0.00,CLR,SKC,0.00,WeatherDisplay:10.37,2013-08-08 05:26:00,
2013-08-08 00:31:00,70.9,63.3,29.95,East,99,2.8,3.5,77,0.00,CLR,SKC,0.00,WeatherDisplay:10.37,2013-08-08 05:31:00,
2013-08-08 00:36:00,70.8,63.2,29.94,ENE,73,1.9,3.5,77,0.00,CLR,SKC,0.00,WeatherDisplay:10.37,2013-08-08 05:36:00,
2013-08-08 00:41:00,70.7,63.1,29.95,ENE,59,3.5,4.6,77,0.00,CLR,SKC,0.00,WeatherDisplay:10.37,2013-08-08 05:41:00,
2013-08-08 00:46:00,70.6,63.0,29.95,ENE,65,2.8,4.6,77,0.00,CLR,SKC,0.00,WeatherDisplay:10.37,2013-08-08 05:46:00,
2013-08-08 00:51:00,70.4,62.8,29.95,ENE,59,1.1,2.3,77,0.00,CLR,SKC,0.00,WeatherDisplay:10.37,2013-08-08 05:51:00,
2013-08-08 00:56:00,70.1,62.9,29.95,ENE,66,1.4,2.3,78,0.00,CLR,SKC,0.00,WeatherDisplay:10.37,2013-08-08 05:56:00,
2013-08-08 01:01:00,70.0,62.8,29.95,East,79,2.5,3.5,78,0.00,CLR,SKC,0.00,WeatherDisplay:10.37,2013-08-08 06:01:00,
2013-08-08 01:06:00,69.9,62.7,29.94,ENE,70,1.3,2.3,78,0.00,CLR,SKC,0.00,WeatherDisplay:10.37,2013-08-08 06:06:00,
2013-08-08 01:11:00,69.8,62.6,29.94,ENE,73,2.1,4.0,78,0.00,CLR,SKC,0.00,WeatherDisplay:10.37,2013-08-08 06:11:00,
2013-08-08 01:16:00,69.7,62.5,29.94,ENE,63,1.4,3.5,78,0.00,CLR,SKC,0.00,WeatherDisplay:10.37,2013-08-08 06:16:00,
2013-08-08 01:21:00,69.6,62.4,29.95,East,84,0.6,1.1,78,0.00,CLR,SKC,0.00,WeatherDisplay:10.37,2013-08-08 06:21:00,
2013-08-08 01:26:00,69.5,62.7,29.95,ENE,72,1.4,2.3,79,0.00,CLR,SKC,0.00,WeatherDisplay:10.37,2013-08-08 06:26:00,
2013-08-08 01:31:00,69.3,62.5,29.94,ENE,63,2.2,3.5,79,0.00,CLR,SKC,0.00,WeatherDisplay:10.37,2013-08-08 06:31:00,
2013-08-08 01:36:00,69.2,62.4,29.94,NE,42,1.1,2.3,79,0.00,CLR,SKC,0.00,WeatherDisplay:10.37,2013-08-08 06:36:00,
2013-08-08 01:41:00,69.3,62.1,29.94,ENE,71,3.4,4.6,78,0.00,CLR,SKC,0.00,WeatherDisplay:10.37,2013-08-08 06:41:00,
2013-08-08 01:46:00,69.2,62.0,29.94,ENE,57,2.1,3.5,78,0.00,CLR,SKC,0.00,WeatherDisplay:10.37,2013-08-08 06:46:00,
2013-08-08 01:51:00,69.2,62.0,29.94,ENE,73,0.8,2.3,78,0.00,CLR,SKC,0.00,WeatherDisplay:10.37,2013-08-08 06:51:00,
2013-08-08 01:56:00,69.2,62.0,29.94,East,101,1.7,3.5,78,0.00,CLR,SKC,0.00,WeatherDisplay:10.37,2013-08-08 06:56:00,
2013-08-08 02:02:00,69.2,62.0,29.94,East,94,1.4,3.5,78,0.00,CLR,SKC,0.00,WeatherDisplay:10.37,2013-08-08 07:02:00,
2013-08-08 02:07:00,69.2,61.7,29.94,ESE,113,2.6,3.5,77,0.00,CLR,SKC,0.00,WeatherDisplay:10.37,2013-08-08 07:07:00,
2013-08-08 02:12:00,69.1,61.9,29.94,ENE,63,2.5,3.5,78,0.00,CLR,SKC,0.00,WeatherDisplay:10.37,2013-08-08 07:12:00,
2013-08-08 02:17:00,69.0,61.9,29.94,East,79,2.4,4.6,78,0.00,CLR,SKC,0.00,WeatherDisplay:10.37,2013-08-08 07:17:00,
2013-08-08 02:22:00,68.9,61.8,29.94,East,96,0.6,2.3,78,0.00,CLR,SKC,0.00,WeatherDisplay:10.37,2013-08-08 07:22:00,
2013-08-08 02:27:00,68.8,61.7,29.93,ENE,76,1.3,3.5,78,0.00,CLR,SKC,0.00,WeatherDisplay:10.37,2013-08-08 07:27:00,
2013-08-08 02:32:00,68.8,61.7,29.93,ESE,121,3.5,4.6,78,0.00,CLR,SKC,0.00,WeatherDisplay:10.37,2013-08-08 07:32:00,
2013-08-08 02:37:00,68.8,61.7,29.93,East,100,0.4,1.1,78,0.00,CLR,SKC,0.00,WeatherDisplay:10.37,2013-08-08 07:37:00,
2013-08-08 02:42:00,68.8,61.7,29.93,East,79,0.7,3.5,78,0.00,CLR,SKC,0.00,WeatherDisplay:10.37,2013-08-08 07:42:00,
2013-08-08 02:47:00,68.6,61.5,29.93,East,97,0.1,2.3,78,0.00,CLR,SKC,0.00,WeatherDisplay:10.37,2013-08-08 07:47:00,
2013-08-08 02:52:00,68.7,61.6,29.93,East,101,1.4,4.0,78,0.00,CLR,SKC,0.00,WeatherDisplay:10.37,2013-08-08 07:52:00,
2013-08-08 02:57:00,68.6,61.5,29.93,NE,56,1.4,3.5,78,0.00,CLR,SKC,0.00,WeatherDisplay:10.37,2013-08-08 07:57:00,
2013-08-08 03:02:00,68.6,61.5,29.93,ESE,119,0.9,2.3,78,0.00,CLR,SKC,0.00,WeatherDisplay:10.37,2013-08-08 08:02:00,
2013-08-08 03:07:00,68.6,61.5,29.93,East,85,0.1,1.1,78,0.00,CLR,SKC,0.00,WeatherDisplay:10.37,2013-08-08 08:07:00,
2013-08-08 03:12:00,68.4,61.6,29.93,ENE,68,0.6,1.1,79,0.00,CLR,SKC,0.00,WeatherDisplay:10.37,2013-08-08 08:12:00,
2013-08-08 03:17:00,68.4,61.6,29.93,East,83,0.0,0.0,79,0.00,CLR,SKC,0.00,WeatherDisplay:10.37,2013-08-08 08:17:00,
2013-08-08 03:22:00,68.2,61.4,29.92,ENE,68,0.5,1.1,79,0.00,CLR,SKC,0.00,WeatherDisplay:10.37,2013-08-08 08:22:00,
2013-08-08 03:27:00,68.1,61.3,29.93,East,90,0.4,2.3,79,0.00,CLR,SKC,0.00,WeatherDisplay:10.37,2013-08-08 08:27:00,
2013-08-08 03:32:00,68.2,61.4,29.93,East,81,0.1,0.0,79,0.00,CLR,SKC,0.00,WeatherDisplay:10.37,2013-08-08 08:32:00,
2013-08-08 03:37:00,68.1,61.3,29.93,ENE,59,0.6,3.5,79,0.00,CLR,SKC,0.00,WeatherDisplay:10.37,2013-08-08 08:37:00,
2013-08-08 03:42:00,68.2,61.4,29.93,East,81,2.2,3.5,79,0.00,CLR,SKC,0.00,WeatherDisplay:10.37,2013-08-08 08:42:00,
2013-08-08 03:47:00,68.2,61.4,29.93,East,83,3.1,5.0,79,0.00,CLR,SKC,0.00,WeatherDisplay:10.37,2013-08-08 08:47:00,
2013-08-08 03:52:00,68.1,61.7,29.93,East,95,2.0,3.5,80,0.00,CLR,SKC,0.00,WeatherDisplay:10.37,2013-08-08 08:52:00,
2013-08-08 03:57:00,68.1,61.7,29.92,ESE,105,1.9,3.5,80,0.00,CLR,SKC,0.00,WeatherDisplay:10.37,2013-08-08 08:57:00,
2013-08-08 04:02:00,68.1,61.7,29.92,ESE,108,3.5,5.0,80,0.00,CLR,SKC,0.00,WeatherDisplay:10.37,2013-08-08 09:02:00,
2013-08-08 04:07:00,68.1,61.7,29.92,ENE,66,2.6,4.6,80,0.00,CLR,SKC,0.00,WeatherDisplay:10.37,2013-08-08 09:07:00,
2013-08-08 04:12:00,68.1,61.7,29.91,East,90,4.1,6.9,80,0.00,CLR,SKC,0.00,WeatherDisplay:10.37,2013-08-08 09:12:00,
2013-08-08 04:17:00,68.0,61.6,29.91,ESE,114,3.5,4.6,80,0.00,CLR,SKC,0.00,WeatherDisplay:10.37,2013-08-08 09:17:00,
2013-08-08 04:22:00,68.0,61.6,29.91,ENE,76,3.2,5.0,80,0.00,CLR,SKC,0.00,WeatherDisplay:10.37,2013-08-08 09:22:00,
2013-08-08 04:27:00,67.9,61.5,29.91,East,97,3.2,4.6,80,0.00,CLR,SKC,0.00,WeatherDisplay:10.37,2013-08-08 09:27:00,
2013-08-08 04:32:00,67.9,61.5,29.90,East,83,3.9,5.8,80,0.00,CLR,SKC,0.00,WeatherDisplay:10.37,2013-08-08 09:32:00,
2013-08-08 04:37:00,67.8,61.4,29.90,East,96,2.9,3.5,80,0.00,CLR,SKC,0.00,WeatherDisplay:10.37,2013-08-08 09:37:00,
2013-08-08 04:42:00,67.7,61.3,29.90,East,101,3.6,6.0,80,0.00,CLR,SKC,0.00,WeatherDisplay:10.37,2013-08-08 09:42:00,
2013-08-08 04:47:00,67.6,61.6,29.89,ESE,113,4.0,6.9,81,0.00,CLR,SKC,0.00,WeatherDisplay:10.37,2013-08-08 09:47:00,
2013-08-08 04:52:00,67.4,61.4,29.90,East,94,4.6,7.0,81,0.00,CLR,SKC,0.00,WeatherDisplay:10.37,2013-08-08 09:52:00,
2013-08-08 04:57:00,67.4,61.4,29.90,ENE,70,4.2,6.9,81,0.00,CLR,SKC,0.00,WeatherDisplay:10.37,2013-08-08 09:57:00,
2013-08-08 05:02:00,67.3,61.3,29.90,East,100,2.2,4.6,81,0.00,CLR,SKC,0.00,WeatherDisplay:10.37,2013-08-08 10:02:00,
2013-08-08 05:07:00,67.3,61.3,29.90,East,96,3.3,4.6,81,0.00,CLR,SKC,0.00,WeatherDisplay:10.37,2013-08-08 10:07:00,
2013-08-08 05:12:00,67.2,61.2,29.90,East,86,3.9,5.8,81,0.00,CLR,SKC,0.00,WeatherDisplay:10.37,2013-08-08 10:12:00,
2013-08-08 05:17:00,67.1,61.1,29.91,East,96,1.8,1.8,81,0.00,CLR,SKC,0.00,WeatherDisplay:10.37,2013-08-08 10:17:00,
2013-08-08 05:22:00,67.0,61.3,29.91,ESE,105,0.8,1.1,82,0.00,CLR,SKC,0.00,WeatherDisplay:10.37,2013-08-08 10:22:00,
2013-08-08 05:27:00,67.0,61.3,29.91,ESE,108,1.3,3.5,82,0.00,CLR,SKC,0.00,WeatherDisplay:10.37,2013-08-08 10:27:00,
2013-08-08 05:32:00,67.0,61.3,29.91,SE,144,2.8,3.5,82,0.00,CLR,SKC,0.00,WeatherDisplay:10.37,2013-08-08 10:32:00,
2013-08-08 05:37:00,67.0,61.3,29.92,ESE,111,4.1,5.0,82,0.00,CLR,SKC,0.00,WeatherDisplay:10.37,2013-08-08 10:37:00,
2013-08-08 05:42:00,66.9,61.2,29.92,SE,129,5.0,9.2,82,0.00,CLR,SKC,0.00,WeatherDisplay:10.37,2013-08-08 10:42:00,
2013-08-08 05:47:00,66.9,61.2,29.92,ESE,103,3.5,5.0,82,0.00,CLR,SKC,0.00,WeatherDisplay:10.37,2013-08-08 10:47:00,
2013-08-08 05:52:00,66.8,61.1,29.92,SE,141,3.9,4.6,82,0.00,CLR,SKC,0.00,WeatherDisplay:10.37,2013-08-08 10:52:00,
2013-08-08 05:57:00,66.6,61.3,29.93,SE,135,3.6,5.8,83,0.00,CLR,SKC,0.00,WeatherDisplay:10.37,2013-08-08 10:57:00,
2013-08-08 06:02:00,66.5,61.2,29.93,ESE,120,4.9,8.1,83,0.00,CLR,SKC,0.00,WeatherDisplay:10.37,2013-08-08 11:02:00,
2013-08-08 06:07:00,66.4,61.1,29.93,East,94,3.8,6.9,83,0.00,CLR,SKC,0.00,WeatherDisplay:10.37,2013-08-08 11:07:00,
2013-08-08 06:12:00,66.2,61.2,29.93,ESE,118,4.1,6.0,84,0.00,CLR,SKC,0.00,WeatherDisplay:10.37,2013-08-08 11:12:00,
2013-08-08 06:17:00,66.1,61.1,29.93,East,101,2.9,5.8,84,0.00,CLR,SKC,0.00,WeatherDisplay:10.37,2013-08-08 11:17:00,
2013-08-08 06:22:00,66.1,61.1,29.93,SE,135,1.6,3.5,84,0.00,CLR,SKC,0.00,WeatherDisplay:10.37,2013-08-08 11:22:00,
2013-08-08 06:27:00,66.0,61.0,29.93,SE,126,1.9,2.3,84,0.00,CLR,SKC,0.00,WeatherDisplay:10.37,2013-08-08 11:27:00,
2013-08-08 06:32:00,66.0,61.0,29.93,ESE,110,2.9,4.6,84,0.00,CLR,SKC,0.00,WeatherDisplay:10.37,2013-08-08 11:32:00,
2013-08-08 06:34:00,66.0,61.0,29.93,ESE,122,0.7,3.5,84,0.00,CLR,SKC,0.00,WeatherDisplay:10.37,2013-08-08 11:34:00,
2013-08-08 06:39:00,66.0,61.4,29.93,ESE,107,1.9,3.5,85,0.00,CLR,SKC,0.00,WeatherDisplay:10.37,2013-08-08 11:39:00,
2013-08-08 06:44:00,66.0,61.0,29.93,East,84,1.2,3.5,84,0.00,CLR,SKC,0.00,WeatherDisplay:10.37,2013-08-08 11:44:00,
2013-08-08 06:49:00,66.0,61.4,29.93,ESE,118,0.5,1.1,85,0.00,CLR,SKC,0.00,WeatherDisplay:10.37,2013-08-08 11:49:00,
2013-08-08 06:54:00,66.1,61.1,29.93,SE,135,0.3,2.3,84,0.00,CLR,SKC,0.00,WeatherDisplay:10.37,2013-08-08 11:54:00,
2013-08-08 06:59:00,66.1,61.1,29.94,ESE,120,1.2,2.3,84,0.00,CLR,SKC,0.00,WeatherDisplay:10.37,2013-08-08 11:59:00,
2013-08-08 07:04:00,66.1,61.1,29.94,ESE,107,0.9,3.5,84,0.00,CLR,SKC,0.00,WeatherDisplay:10.37,2013-08-08 12:04:00,
2013-08-08 07:05:00,66.2,61.2,29.94,ENE,77,2.2,2.3,84,0.00,CLR,SKC,0.00,WeatherDisplay:10.37,2013-08-08 12:05:00,
2013-08-08 07:10:00,66.2,61.2,29.94,ESE,105,3.0,4.0,84,0.00,CLR,SKC,0.00,WeatherDisplay:10.37,2013-08-08 12:10:00,
2013-08-08 07:15:00,66.3,61.3,29.95,East,86,2.8,3.5,84,0.00,CLR,SKC,0.00,WeatherDisplay:10.37,2013-08-08 12:15:00,
2013-08-08 07:20:00,66.4,61.4,29.95,ESE,111,2.2,3.5,84,0.00,CLR,SKC,0.00,WeatherDisplay:10.37,2013-08-08 12:20:00,
2013-08-08 07:25:00,66.5,61.5,29.95,East,101,1.2,3.5,84,0.00,CLR,SKC,0.00,WeatherDisplay:10.37,2013-08-08 12:25:00,
2013-08-08 07:30:00,66.6,61.3,29.95,East,101,2.4,3.5,83,0.00,CLR,SKC,0.00,WeatherDisplay:10.37,2013-08-08 12:30:00,
2013-08-08 07:35:00,66.6,61.3,29.95,ENE,66,2.6,2.6,83,0.00,CLR,SKC,0.00,WeatherDisplay:10.37,2013-08-08 12:35:00,
2013-08-08 07:40:00,66.6,61.3,29.96,ENE,67,1.6,2.3,83,0.00,CLR,SKC,0.00,WeatherDisplay:10.37,2013-08-08 12:40:00,
2013-08-08 07:45:00,66.8,61.5,29.96,East,91,2.1,3.5,83,0.00,CLR,SKC,0.00,WeatherDisplay:10.37,2013-08-08 12:45:00,
2013-08-08 07:50:00,66.8,61.5,29.97,ESE,117,1.6,4.6,83,0.00,CLR,SKC,0.00,WeatherDisplay:10.37,2013-08-08 12:50:00,
2013-08-08 07:55:00,66.9,61.6,29.97,East,98,3.9,5.0,83,0.00,CLR,SKC,0.00,WeatherDisplay:10.37,2013-08-08 12:55:00,
2013-08-08 08:00:00,66.9,61.6,29.98,SE,125,5.2,6.0,83,0.00,CLR,SKC,0.00,WeatherDisplay:10.37,2013-08-08 13:00:00,
2013-08-08 08:05:00,67.0,61.7,29.98,ENE,76,2.5,5.8,83,0.00,CLR,SKC,0.00,WeatherDisplay:10.37,2013-08-08 13:05:00,
2013-08-08 08:10:00,67.1,61.4,29.98,East,100,3.8,4.6,82,0.00,CLR,SKC,0.00,WeatherDisplay:10.37,2013-08-08 13:10:00,
2013-08-08 08:15:00,67.1,61.4,29.98,East,98,3.0,7.0,82,0.00,CLR,SKC,0.00,WeatherDisplay:10.37,2013-08-08 13:15:00,
2013-08-08 08:20:00,67.1,61.4,29.97,SE,131,2.5,5.8,82,0.00,CLR,SKC,0.00,WeatherDisplay:10.37,2013-08-08 13:20:00,
2013-08-08 08:25:00,67.3,61.6,29.97,SE,127,2.6,5.8,82,0.00,CLR,SKC,0.00,WeatherDisplay:10.37,2013-08-08 13:25:00,
2013-08-08 08:30:00,67.3,61.3,29.97,SE,130,3.0,9.0,81,0.00,CLR,SKC,0.00,WeatherDisplay:10.37,2013-08-08 13:30:00,
2013-08-08 08:35:00,67.3,61.3,29.97,SE,134,3.2,5.8,81,0.00,CLR,SKC,0.00,WeatherDisplay:10.37,2013-08-08 13:35:00,
2013-08-08 08:40:00,67.5,61.5,29.97,ESE,119,2.9,5.8,81,0.00,CLR,SKC,0.00,WeatherDisplay:10.37,2013-08-08 13:40:00,
2013-08-08 08:45:00,67.5,61.5,29.97,SE,124,2.8,5.8,81,0.00,CLR,SKC,0.00,WeatherDisplay:10.37,2013-08-08 13:45:00,
2013-08-08 08:50:00,67.7,61.7,29.97,SSE,150,2.6,3.5,81,0.00,CLR,SKC,0.00,WeatherDisplay:10.37,2013-08-08 13:50:00,
2013-08-08 08:55:00,67.9,61.5,29.97,East,86,4.5,6.0,80,0.00,CLR,SKC,0.00,WeatherDisplay:10.37,2013-08-08 13:55:00,
2013-08-08 09:00:00,68.0,61.6,29.97,ESE,116,5.5,8.1,80,0.00,CLR,SKC,0.00,WeatherDisplay:10.37,2013-08-08 14:00:00,
2013-08-08 09:05:00,68.1,61.7,29.97,SE,139,2.2,3.5,80,0.00,CLR,SKC,0.00,WeatherDisplay:10.37,2013-08-08 14:05:00,
2013-08-08 09:10:00,68.3,61.9,29.97,East,79,4.0,5.8,80,0.00,CLR,SKC,0.00,WeatherDisplay:10.37,2013-08-08 14:10:00,
2013-08-08 09:15:00,68.2,61.4,29.97,ESE,110,3.7,5.8,79,0.00,CLR,SKC,0.00,WeatherDisplay:10.37,2013-08-08 14:15:00,
2013-08-08 09:21:00,68.3,61.5,29.97,SE,127,5.3,8.1,79,0.00,CLR,SKC,0.00,WeatherDisplay:10.37,2013-08-08 14:21:00,
2013-08-08 09:26:00,68.4,62.0,29.97,SE,141,4.0,4.6,80,0.00,CLR,SKC,0.00,WeatherDisplay:10.37,2013-08-08 14:26:00,
2013-08-08 09:31:00,68.7,61.9,29.97,East,96,5.1,6.9,79,0.00,CLR,SKC,0.00,WeatherDisplay:10.37,2013-08-08 14:31:00,
2013-08-08 09:36:00,68.9,62.5,29.96,SSW,195,0.7,4.0,80,0.00,CLR,SKC,0.00,WeatherDisplay:10.37,2013-08-08 14:36:00,
2013-08-08 09:41:00,69.3,62.1,29.96,SE,131,4.3,5.8,78,0.00,CLR,SKC,0.00,WeatherDisplay:10.37,2013-08-08 14:41:00,
2013-08-08 09:46:00,69.2,62.0,29.97,SE,146,0.9,3.5,78,0.00,CLR,SKC,0.00,WeatherDisplay:10.37,2013-08-08 14:46:00,
2013-08-08 09:51:00,69.3,62.1,29.97,SSW,208,1.7,3.5,78,0.00,CLR,SKC,0.00,WeatherDisplay:10.37,2013-08-08 14:51:00,
2013-08-08 09:56:00,69.2,62.0,29.96,SSW,201,2.4,3.5,78,0.00,CLR,SKC,0.00,WeatherDisplay:10.37,2013-08-08 14:56:00,
2013-08-08 10:01:00,69.2,62.4,29.97,East,97,0.4,3.0,79,0.00,CLR,SKC,0.00,WeatherDisplay:10.37,2013-08-08 15:01:00,
2013-08-08 10:06:00,69.4,62.6,29.97,SSE,163,0.3,1.1,79,0.00,CLR,SKC,0.00,WeatherDisplay:10.37,2013-08-08 15:06:00,
2013-08-08 10:11:00,69.6,62.4,29.97,SSW,208,0.0,0.0,78,0.00,CLR,SKC,0.00,WeatherDisplay:10.37,2013-08-08 15:11:00,
2013-08-08 10:16:00,69.7,62.2,29.97,SW,217,0.1,2.3,77,0.00,CLR,SKC,0.00,WeatherDisplay:10.37,2013-08-08 15:16:00,
2013-08-08 10:21:00,69.7,62.5,29.97,SSW,204,1.5,3.5,78,0.00,CLR,SKC,0.00,WeatherDisplay:10.37,2013-08-08 15:21:00,
2013-08-08 10:26:00,69.9,62.4,29.96,SSE,153,0.9,2.3,77,0.00,SCT,SKC,0.00,WeatherDisplay:10.37,2013-08-08 15:26:00,
2013-08-08 10:31:00,70.3,62.7,29.96,SE,138,1.2,2.3,77,0.00,SCT,SKC,0.00,WeatherDisplay:10.37,2013-08-08 15:31:00,
2013-08-08 10:36:00,70.9,63.0,29.96,South,169,0.8,3.0,76,0.00,SCT,SKC,0.00,WeatherDisplay:10.37,2013-08-08 15:36:00,
2013-08-08 10:41:00,71.2,62.9,29.96,SSW,210,1.2,3.5,75,0.00,SCT,SKC,0.00,WeatherDisplay:10.37,2013-08-08 15:41:00,
2013-08-08 10:46:00,71.3,62.6,29.96,ESE,118,3.4,5.0,74,0.00,CLR,SKC,0.00,WeatherDisplay:10.37,2013-08-08 15:46:00,
2013-08-08 10:51:00,70.9,62.2,29.96,SSE,153,3.7,4.0,74,0.00,CLR,SKC,0.00,WeatherDisplay:10.37,2013-08-08 15:51:00,
2013-08-08 10:56:00,71.0,62.7,29.95,SE,136,4.4,5.8,75,0.00,CLR,SKC,0.00,WeatherDisplay:10.37,2013-08-08 15:56:00,
2013-08-08 11:01:00,71.1,62.8,29.96,SSE,149,3.5,4.6,75,0.00,CLR,SKC,0.00,WeatherDisplay:10.37,2013-08-08 16:01:00,
2013-08-08 11:06:00,71.3,62.6,29.96,East,82,3.3,3.5,74,0.00,CLR,SKC,0.00,WeatherDisplay:10.37,2013-08-08 16:06:00,
2013-08-08 11:11:00,71.4,62.3,29.95,SE,134,2.6,4.6,73,0.00,CLR,SKC,0.00,WeatherDisplay:10.37,2013-08-08 16:11:00,
2013-08-08 11:16:00,71.6,62.5,29.95,East,87,2.5,3.5,73,0.00,CLR,SKC,0.00,WeatherDisplay:10.37,2013-08-08 16:16:00,
2013-08-08 11:21:00,71.6,62.9,29.95,ESE,118,1.6,3.0,74,0.00,CLR,SKC,0.00,WeatherDisplay:10.37,2013-08-08 16:21:00,
2013-08-08 11:26:00,72.0,62.9,29.95,East,90,2.4,3.5,73,0.00,CLR,SKC,0.00,WeatherDisplay:10.37,2013-08-08 16:26:00,
2013-08-08 11:31:00,72.0,62.5,29.95,ESE,110,2.3,2.3,72,0.00,CLR,SKC,0.00,WeatherDisplay:10.37,2013-08-08 16:31:00,
2013-08-08 11:36:00,72.3,63.2,29.95,SW,228,0.4,3.5,73,0.00,CLR,SKC,0.00,WeatherDisplay:10.37,2013-08-08 16:36:00,
2013-08-08 11:41:00,72.8,62.8,29.95,ESE,117,1.6,3.5,71,0.00,CLR,SKC,0.00,WeatherDisplay:10.37,2013-08-08 16:41:00,
2013-08-08 11:46:00,72.7,62.3,29.95,East,87,1.5,2.3,70,0.00,CLR,SKC,0.00,WeatherDisplay:10.37,2013-08-08 16:46:00,
2013-08-08 11:51:00,72.8,62.4,29.95,SE,136,1.5,1.5,70,0.00,CLR,SKC,0.00,WeatherDisplay:10.37,2013-08-08 16:51:00,
2013-08-08 11:56:00,73.2,62.8,29.95,NE,47,0.7,1.1,70,0.00,CLR,SKC,0.00,WeatherDisplay:10.37,2013-08-08 16:56:00,
2013-08-08 12:01:00,73.7,63.3,29.95,East,86,0.0,1.1,70,0.00,CLR,SKC,0.00,WeatherDisplay:10.37,2013-08-08 17:01:00,
2013-08-08 12:06:00,73.9,62.7,29.95,SSE,148,1.3,2.3,68,0.00,CLR,SKC,0.00,WeatherDisplay:10.37,2013-08-08 17:06:00,
2013-08-08 12:11:00,74.3,63.1,29.95,SSW,195,1.7,3.5,68,0.00,CLR,SKC,0.00,WeatherDisplay:10.37,2013-08-08 17:11:00,
2013-08-08 12:16:00,74.6,62.5,29.95,SE,139,2.3,3.5,66,0.00,CLR,SKC,0.00,WeatherDisplay:10.37,2013-08-08 17:16:00,
2013-08-08 12:21:00,74.9,62.8,29.95,ESE,110,1.4,2.3,66,0.00,CLR,SKC,0.00,WeatherDisplay:10.37,2013-08-08 17:21:00,
2013-08-08 12:26:00,75.3,63.2,29.95,South,184,0.0,0.0,66,0.00,CLR,SKC,0.00,WeatherDisplay:10.37,2013-08-08 17:26:00,
2013-08-08 12:31:00,75.8,62.8,29.95,ENE,61,1.9,2.3,64,0.00,CLR,SKC,0.00,WeatherDisplay:10.37,2013-08-08 17:31:00,
2013-08-08 12:36:00,75.3,63.2,29.95,NNE,27,0.2,1.1,66,0.00,CLR,SKC,0.00,WeatherDisplay:10.37,2013-08-08 17:36:00,
2013-08-08 12:41:00,75.2,63.1,29.95,NE,44,1.9,3.5,66,0.00,CLR,SKC,0.00,WeatherDisplay:10.37,2013-08-08 17:41:00,
2013-08-08 12:46:00,74.9,62.8,29.95,ENE,64,1.2,2.3,66,0.00,CLR,SKC,0.00,WeatherDisplay:10.37,2013-08-08 17:46:00,
2013-08-08 12:51:00,75.1,63.0,29.95,NE,50,0.1,1.1,66,0.00,CLR,SKC,0.00,WeatherDisplay:10.37,2013-08-08 17:51:00,
2013-08-08 12:56:00,75.2,63.1,29.95,NNE,22,0.0,0.0,66,0.00,CLR,SKC,0.00,WeatherDisplay:10.37,2013-08-08 17:56:00,
2013-08-08 13:01:00,75.4,63.7,29.95,ENE,72,0.6,2.0,67,0.00,CLR,SKC,0.00,WeatherDisplay:10.37,2013-08-08 18:01:00,
2013-08-08 13:06:00,75.2,62.6,29.95,ENE,75,0.0,0.0,65,0.00,CLR,SKC,0.00,WeatherDisplay:10.37,2013-08-08 18:06:00,
2013-08-08 13:11:00,75.8,63.2,29.95,ENE,75,0.0,0.0,65,0.00,CLR,SKC,0.00,WeatherDisplay:10.37,2013-08-08 18:11:00,
2013-08-08 13:16:00,76.1,62.6,29.95,SE,141,0.2,1.1,63,0.00,CLR,SKC,0.00,WeatherDisplay:10.37,2013-08-08 18:16:00,
2013-08-08 13:21:00,75.8,61.8,29.95,East,93,1.8,3.5,62,0.00,SCT,SKC,0.00,WeatherDisplay:10.37,2013-08-08 18:21:00,
2013-08-08 13:26:00,75.7,62.7,29.95,NNE,30,0.1,1.1,64,0.00,SCT,SKC,0.00,WeatherDisplay:10.37,2013-08-08 18:26:00,
2013-08-08 13:31:00,75.6,62.1,29.96,ESE,120,1.2,2.3,63,0.00,SCT,SKC,0.00,WeatherDisplay:10.37,2013-08-08 18:31:00,
2013-08-08 13:36:00,75.7,62.2,29.96,SE,139,0.5,1.1,63,0.00,SCT,SKC,0.00,WeatherDisplay:10.37,2013-08-08 18:36:00,
2013-08-08 13:41:00,76.1,62.6,29.96,SE,138,0.0,0.0,63,0.00,BKN,SKC,0.00,WeatherDisplay:10.37,2013-08-08 18:41:00,
2013-08-08 13:46:00,76.4,62.9,29.97,WSW,256,1.3,2.3,63,0.00,BKN,SKC,0.00,WeatherDisplay:10.37,2013-08-08 18:46:00,
2013-08-08 13:51:00,76.1,63.0,29.97,WSW,240,0.1,1.1,64,0.00,BKN,SKC,0.00,WeatherDisplay:10.37,2013-08-08 18:51:00,
2013-08-08 13:56:00,76.1,63.5,29.97,WSW,238,0.0,0.0,65,0.00,BKN,SKC,0.00,WeatherDisplay:10.37,2013-08-08 18:56:00,
2013-08-08 14:01:00,76.1,63.5,29.97,North,349,0.8,1.1,65,0.00,OVC,SKC,0.00,WeatherDisplay:10.37,2013-08-08 19:01:00,
2013-08-08 14:06:00,75.8,63.6,29.97,NNW,330,1.0,3.5,66,0.00,OVC,SKC,0.00,WeatherDisplay:10.37,2013-08-08 19:06:00,
2013-08-08 14:11:00,75.4,63.2,29.97,West,276,0.0,0.0,66,0.00,OVC,SKC,0.00,WeatherDisplay:10.37,2013-08-08 19:11:00,
2013-08-08 14:16:00,75.5,63.8,29.98,NW,317,0.0,0.0,67,0.00,OVC,SKC,0.00,WeatherDisplay:10.37,2013-08-08 19:16:00,
2013-08-08 14:21:00,75.6,64.3,29.98,NW,325,1.2,3.5,68,0.00,BKN,SKC,0.00,WeatherDisplay:10.37,2013-08-08 19:21:00,
2013-08-08 14:26:00,75.4,64.5,29.98,NW,326,1.8,3.0,69,0.00,BKN,SKC,0.00,WeatherDisplay:10.37,2013-08-08 19:26:00,
2013-08-08 14:31:00,75.1,64.6,29.98,NNW,341,0.0,2.3,70,0.00,BKN,SKC,0.00,WeatherDisplay:10.37,2013-08-08 19:31:00,
2013-08-08 14:36:00,75.1,64.6,29.98,North,360,1.3,2.3,70,0.00,BKN,SKC,0.00,WeatherDisplay:10.37,2013-08-08 19:36:00,
2013-08-08 14:41:00,75.1,64.6,29.98,North,5,0.3,1.1,70,0.00,OVC,SKC,0.00,WeatherDisplay:10.37,2013-08-08 19:41:00,
2013-08-08 14:47:00,75.2,63.9,29.98,North,358,1.5,3.5,68,0.00,OVC,SKC,0.00,WeatherDisplay:10.37,2013-08-08 19:47:00,
2013-08-08 14:52:00,75.2,63.9,29.98,NNW,341,1.8,3.5,68,0.00,OVC,SKC,0.00,WeatherDisplay:10.37,2013-08-08 19:52:00,
2013-08-08 14:59:00,75.5,64.2,29.98,West,264,0.0,1.1,68,0.00,CLR,SKC,0.00,WeatherDisplay:10.37,2013-08-08 19:59:00,
2013-08-08 15:04:00,75.8,64.5,29.98,North,11,3.0,3.5,68,0.00,BKN,SKC,0.00,WeatherDisplay:10.37,2013-08-08 20:04:00,
2013-08-08 15:09:00,75.6,63.9,29.97,NNE,23,0.7,1.1,67,0.00,BKN,SKC,0.00,WeatherDisplay:10.37,2013-08-08 20:09:00,
2013-08-08 15:14:00,75.7,64.4,29.97,North,6,1.7,2.3,68,0.00,BKN,SKC,0.00,WeatherDisplay:10.37,2013-08-08 20:14:00,
2013-08-08 15:19:00,75.5,64.6,29.97,NNE,20,0.9,5.8,69,0.00,BKN,SKC,0.00,WeatherDisplay:10.37,2013-08-08 20:19:00,
2013-08-08 15:24:00,75.4,64.5,29.97,NNW,343,0.5,2.3,69,0.00,BKN,SKC,0.00,WeatherDisplay:10.37,2013-08-08 20:24:00,
2013-08-08 15:29:00,75.7,64.8,29.97,NNE,13,2.2,3.0,69,0.00,BKN,SKC,0.00,WeatherDisplay:10.37,2013-08-08 20:29:00,
2013-08-08 15:34:00,75.9,65.0,29.97,NE,41,1.9,4.0,69,0.00,BKN,SKC,0.00,WeatherDisplay:10.37,2013-08-08 20:34:00,
2013-08-08 15:39:00,76.2,65.7,29.97,NNW,344,0.8,1.1,70,0.00,BKN,SKC,0.00,WeatherDisplay:10.37,2013-08-08 20:39:00,
2013-08-08 15:44:00,76.4,65.9,29.97,NE,41,1.5,3.5,70,0.00,SCT,SKC,0.00,WeatherDisplay:10.37,2013-08-08 20:44:00,
2013-08-08 15:49:00,76.1,66.0,29.97,NE,41,3.3,4.6,71,0.00,SCT,SKC,0.00,WeatherDisplay:10.37,2013-08-08 20:49:00,
2013-08-08 15:54:00,76.1,65.2,29.97,NE,52,1.5,2.3,69,0.00,SCT,SKC,0.00,WeatherDisplay:10.37,2013-08-08 20:54:00,
2013-08-08 15:59:00,76.3,65.4,29.97,ENE,76,1.6,3.5,69,0.00,SCT,SKC,0.00,WeatherDisplay:10.37,2013-08-08 20:59:00,
2013-08-08 16:04:00,76.7,66.2,29.96,NNW,338,0.5,2.0,70,0.00,BKN,SKC,0.00,WeatherDisplay:10.37,2013-08-08 21:04:00,
2013-08-08 16:09:00,76.8,65.9,29.96,NNE,12,3.1,4.6,69,0.00,BKN,SKC,0.00,WeatherDisplay:10.37,2013-08-08 21:09:00,
2013-08-08 16:14:00,77.2,66.2,29.96,NNW,347,1.6,3.5,69,0.00,BKN,SKC,0.00,WeatherDisplay:10.37,2013-08-08 21:14:00,
2013-08-08 16:19:00,77.4,66.0,29.96,NE,37,1.4,3.5,68,0.00,BKN,SKC,0.00,WeatherDisplay:10.37,2013-08-08 21:19:00,
2013-08-08 16:25:00,77.7,65.9,29.96,West,281,1.4,2.3,67,0.00,SCT,SKC,0.00,WeatherDisplay:10.37,2013-08-08 21:25:00,
2013-08-08 16:31:00,78.1,65.8,29.96,NE,37,2.5,3.5,66,0.00,SCT,SKC,0.00,WeatherDisplay:10.37,2013-08-08 21:31:00,
2013-08-08 16:36:00,78.0,66.2,29.96,NNW,346,1.6,3.5,67,0.00,SCT,SKC,0.00,WeatherDisplay:10.37,2013-08-08 21:36:00,
2013-08-08 16:41:00,77.6,66.6,29.96,North,351,0.3,1.1,69,0.00,SCT,SKC,0.00,WeatherDisplay:10.37,2013-08-08 21:41:00,
2013-08-08 16:47:00,77.5,66.1,29.96,NE,44,1.4,3.5,68,0.00,CLR,SKC,0.00,WeatherDisplay:10.37,2013-08-08 21:47:00,
2013-08-08 16:52:00,77.6,66.6,29.96,NE,51,1.1,3.0,69,0.00,CLR,SKC,0.00,WeatherDisplay:10.37,2013-08-08 21:52:00,
2013-08-08 16:57:00,77.3,66.3,29.96,NNE,30,2.9,4.6,69,0.00,CLR,SKC,0.00,WeatherDisplay:10.37,2013-08-08 21:57:00,
2013-08-08 17:02:00,77.2,66.7,29.97,NE,51,1.0,3.5,70,0.00,BKN,SKC,0.00,WeatherDisplay:10.37,2013-08-08 22:02:00,
2013-08-08 17:07:00,77.3,65.9,29.97,NE,39,0.1,1.1,68,0.00,BKN,SKC,0.00,WeatherDisplay:10.37,2013-08-08 22:07:00,
2013-08-08 17:12:00,77.2,65.8,29.97,NNE,18,1.4,1.4,68,0.00,BKN,SKC,0.00,WeatherDisplay:10.37,2013-08-08 22:12:00,
2013-08-08 17:17:00,77.1,65.7,29.96,NE,50,1.1,2.0,68,0.00,BKN,SKC,0.00,WeatherDisplay:10.37,2013-08-08 22:17:00,
2013-08-08 17:23:00,77.4,65.1,29.96,NE,50,0.0,0.0,66,0.00,OVC,SKC,0.00,WeatherDisplay:10.37,2013-08-08 22:23:00,
2013-08-08 17:28:00,77.6,64.5,29.96,NNE,25,0.4,0.0,64,0.00,OVC,SKC,0.00,WeatherDisplay:10.37,2013-08-08 22:28:00,
2013-08-08 17:33:00,77.8,63.3,29.96,NNE,25,0.0,0.0,61,0.00,OVC,SKC,0.00,WeatherDisplay:10.37,2013-08-08 22:33:00,
2013-08-08 17:38:00,77.9,62.4,29.96,NNE,24,0.0,0.0,59,0.00,OVC,SKC,0.00,WeatherDisplay:10.37,2013-08-08 22:38:00,
2013-08-08 17:43:00,78.1,62.6,29.96,NNE,25,0.0,0.0,59,0.00,OVC,SKC,0.00,WeatherDisplay:10.37,2013-08-08 22:43:00,
2013-08-08 17:48:00,78.1,62.1,29.96,NNE,25,0.1,0.0,58,0.00,OVC,SKC,0.00,WeatherDisplay:10.37,2013-08-08 22:48:00,
2013-08-08 17:53:00,77.8,63.3,29.96,NNE,24,0.0,0.0,61,0.00,OVC,SKC,0.00,WeatherDisplay:10.37,2013-08-08 22:53:00,
2013-08-08 17:58:00,77.7,63.2,29.96,NNE,25,0.0,0.0,61,0.00,OVC,SKC,0.00,WeatherDisplay:10.37,2013-08-08 22:58:00,
2013-08-08 18:04:00,77.6,62.6,29.96,NNE,25,0.0,0.0,60,0.00,SCT,SKC,0.00,WeatherDisplay:10.37,2013-08-08 23:04:00,
2013-08-08 18:09:00,77.5,63.5,29.95,NNE,25,0.0,1.1,62,0.00,SCT,SKC,0.00,WeatherDisplay:10.37,2013-08-08 23:09:00,
2013-08-08 18:15:00,77.6,64.5,29.95,NNE,25,0.0,0.0,64,0.00,SCT,SKC,0.00,WeatherDisplay:10.37,2013-08-08 23:15:00,
2013-08-08 18:20:00,77.8,64.2,29.95,NNE,25,0.0,0.0,63,0.00,SCT,SKC,0.00,WeatherDisplay:10.37,2013-08-08 23:20:00,
2013-08-08 18:25:00,77.6,64.0,29.95,North,5,0.0,1.1,63,0.00,CLR,SKC,0.00,WeatherDisplay:10.37,2013-08-08 23:25:00,
2013-08-08 18:30:00,77.2,64.5,29.95,NNE,25,0.8,2.3,65,0.00,CLR,SKC,0.00,WeatherDisplay:10.37,2013-08-08 23:30:00,
2013-08-08 18:35:00,77.0,64.3,29.95,NNE,25,0.0,0.0,65,0.00,CLR,SKC,0.00,WeatherDisplay:10.37,2013-08-08 23:35:00,
2013-08-08 18:41:00,76.9,64.2,29.95,NE,38,0.0,0.0,65,0.00,CLR,SKC,0.00,WeatherDisplay:10.37,2013-08-08 23:41:00,
2013-08-08 18:46:00,76.8,63.7,29.94,NE,38,0.0,0.0,64,0.00,CLR,SKC,0.00,WeatherDisplay:10.37,2013-08-08 23:46:00,
2013-08-08 18:52:00,76.8,63.2,29.95,NE,38,0.0,0.0,63,0.00,CLR,SKC,0.00,WeatherDisplay:10.37,2013-08-08 23:52:00,
2013-08-08 18:57:00,76.8,63.7,29.94,NE,38,0.0,0.0,64,0.00,CLR,SKC,0.00,WeatherDisplay:10.37,2013-08-08 23:57:00,
2013-08-08 19:04:00,76.8,64.1,29.94,NE,38,0.0,0.0,65,0.00,CLR,SKC,0.00,WeatherDisplay:10.37,2013-08-09 00:04:00,
2013-08-08 19:09:00,76.7,64.5,29.94,NE,38,0.0,0.0,66,0.00,CLR,SKC,0.00,WeatherDisplay:10.37,2013-08-09 00:09:00,
2013-08-08 19:14:00,76.5,64.3,29.94,NE,38,0.0,0.0,66,0.00,CLR,SKC,0.00,WeatherDisplay:10.37,2013-08-09 00:14:00,
2013-08-08 19:20:00,76.5,64.3,29.94,NE,38,0.0,0.0,66,0.00,CLR,SKC,0.00,WeatherDisplay:10.37,2013-08-09 00:20:00,
2013-08-08 19:25:00,76.5,63.4,29.94,East,89,0.0,0.0,64,0.00,CLR,SKC,0.00,WeatherDisplay:10.37,2013-08-09 00:25:00,
2013-08-08 19:30:00,76.6,64.4,29.94,East,96,0.0,0.0,66,0.00,CLR,SKC,0.00,WeatherDisplay:10.37,2013-08-09 00:30:00,
2013-08-08 19:35:00,76.5,63.9,29.94,SE,137,0.0,0.0,65,0.00,CLR,SKC,0.00,WeatherDisplay:10.37,2013-08-09 00:35:00,
2013-08-08 19:41:00,76.3,63.7,29.94,SSE,155,0.0,0.0,65,0.00,CLR,SKC,0.00,WeatherDisplay:10.37,2013-08-09 00:41:00,
2013-08-08 19:46:00,76.1,63.5,29.94,SE,135,0.0,0.0,65,0.00,CLR,SKC,0.00,WeatherDisplay:10.37,2013-08-09 00:46:00,
2013-08-08 19:52:00,76.0,63.4,29.94,SE,132,0.0,0.0,65,0.00,CLR,SKC,0.00,WeatherDisplay:10.37,2013-08-09 00:52:00,
2013-08-08 19:57:00,75.9,62.8,29.94,SE,125,0.0,0.0,64,0.00,CLR,SKC,0.00,WeatherDisplay:10.37,2013-08-09 00:57:00,
2013-08-08 20:02:00,75.9,63.3,29.94,ENE,75,0.0,0.0,65,0.00,CLR,SKC,0.00,WeatherDisplay:10.37,2013-08-09 01:02:00,
2013-08-08 20:07:00,75.7,63.5,29.94,ENE,57,0.0,0.0,66,0.00,CLR,SKC,0.00,WeatherDisplay:10.37,2013-08-09 01:07:00,
2013-08-08 20:12:00,75.4,63.7,29.94,East,94,0.0,0.0,67,0.00,CLR,SKC,0.00,WeatherDisplay:10.37,2013-08-09 01:12:00,
2013-08-08 20:17:00,75.1,63.8,29.94,East,94,0.0,0.0,68,0.00,CLR,SKC,0.00,WeatherDisplay:10.37,2013-08-09 01:17:00,
2013-08-08 20:22:00,74.9,63.6,29.94,ENE,77,0.1,1.0,68,0.00,CLR,SKC,0.00,WeatherDisplay:10.37,2013-08-09 01:22:00,
2013-08-08 20:27:00,74.7,63.9,29.94,SE,138,0.0,0.0,69,0.00,CLR,SKC,0.00,WeatherDisplay:10.37,2013-08-09 01:27:00,
2013-08-08 20:32:00,74.4,64.0,29.94,SE,138,0.0,0.0,70,0.00,CLR,SKC,0.00,WeatherDisplay:10.37,2013-08-09 01:32:00,
2013-08-08 20:39:00,74.1,63.3,29.94,SE,124,1.0,1.1,69,0.00,CLR,SKC,0.00,WeatherDisplay:10.37,2013-08-09 01:39:00,
2013-08-08 20:44:00,74.1,63.7,29.94,ESE,115,0.0,1.1,70,0.00,CLR,SKC,0.00,WeatherDisplay:10.37,2013-08-09 01:44:00,
2013-08-08 20:49:00,73.9,63.9,29.94,SSE,160,1.0,2.3,71,0.00,CLR,SKC,0.00,WeatherDisplay:10.37,2013-08-09 01:49:00,
2013-08-08 20:55:00,73.6,64.0,29.94,SSE,153,0.0,0.0,72,0.00,CLR,SKC,0.00,WeatherDisplay:10.37,2013-08-09 01:55:00,
2013-08-08 21:00:00,73.4,64.2,29.94,SSE,151,0.0,2.0,73,0.00,CLR,SKC,0.00,WeatherDisplay:10.37,2013-08-09 02:00:00,
2013-08-08 21:05:00,73.2,64.0,29.94,SSE,152,0.0,0.0,73,0.00,SCT,SKC,0.00,WeatherDisplay:10.37,2013-08-09 02:05:00,
2013-08-08 21:10:00,73.1,64.3,29.95,SSE,152,0.0,0.0,74,0.00,SCT,SKC,0.00,WeatherDisplay:10.37,2013-08-09 02:10:00,
2013-08-08 21:15:00,73.0,64.2,29.95,SSE,152,0.0,0.0,74,0.00,SCT,SKC,0.00,WeatherDisplay:10.37,2013-08-09 02:15:00,
2013-08-08 21:20:00,72.9,64.5,29.95,SSE,152,0.0,0.0,75,0.00,SCT,SKC,0.00,WeatherDisplay:10.37,2013-08-09 02:20:00,
2013-08-08 21:25:00,72.7,64.3,29.95,SSE,153,0.0,0.0,75,0.00,SCT,SKC,0.00,WeatherDisplay:10.37,2013-08-09 02:25:00,
2013-08-08 21:31:00,72.5,64.5,29.95,SSE,152,0.0,0.0,76,0.00,SCT,SKC,0.00,WeatherDisplay:10.37,2013-08-09 02:31:00,
2013-08-08 21:36:00,72.4,64.4,29.95,SSE,153,0.0,0.0,76,0.00,SCT,SKC,0.00,WeatherDisplay:10.37,2013-08-09 02:36:00,
2013-08-08 21:41:00,72.4,64.4,29.96,SSE,150,0.0,0.0,76,0.00,SCT,SKC,0.00,WeatherDisplay:10.37,2013-08-09 02:41:00,
2013-08-08 21:46:00,72.3,64.7,29.95,SW,215,0.5,2.3,77,0.00,SCT,SKC,0.00,WeatherDisplay:10.37,2013-08-09 02:46:00,
2013-08-08 21:52:00,72.3,64.7,29.96,South,191,0.1,1.1,77,0.00,SCT,SKC,0.00,WeatherDisplay:10.37,2013-08-09 02:52:00,
2013-08-08 21:57:00,72.4,64.4,29.96,SSE,157,0.0,1.1,76,0.00,SCT,SKC,0.00,WeatherDisplay:10.37,2013-08-09 02:57:00,
2013-08-08 22:02:00,72.4,64.8,29.96,SSE,157,0.0,0.0,77,0.00,SCT,SKC,0.00,WeatherDisplay:10.37,2013-08-09 03:02:00,
2013-08-08 22:07:00,72.3,64.7,29.95,SSE,150,0.0,0.0,77,0.00,SCT,SKC,0.00,WeatherDisplay:10.37,2013-08-09 03:07:00,
2013-08-08 22:13:00,72.3,64.7,29.95,SSE,153,0.0,0.0,77,0.00,SCT,SKC,0.00,WeatherDisplay:10.37,2013-08-09 03:13:00,
2013-08-08 22:18:00,72.1,64.5,29.95,South,186,0.0,0.0,77,0.00,SCT,SKC,0.00,WeatherDisplay:10.37,2013-08-09 03:18:00,
2013-08-08 22:23:00,72.0,64.4,29.95,South,180,0.2,0.0,77,0.00,CLR,SKC,0.00,WeatherDisplay:10.37,2013-08-09 03:23:00,
2013-08-08 22:30:00,72.0,64.8,29.95,South,184,0.0,2.0,78,0.00,CLR,SKC,0.00,WeatherDisplay:10.37,2013-08-09 03:30:00,
2013-08-08 22:35:00,71.9,64.7,29.95,SSE,155,0.3,1.1,78,0.00,CLR,SKC,0.00,WeatherDisplay:10.37,2013-08-09 03:35:00,
2013-08-08 22:40:00,71.9,64.7,29.95,South,179,0.2,1.1,78,0.00,CLR,SKC,0.00,WeatherDisplay:10.37,2013-08-09 03:40:00,
2013-08-08 22:45:00,71.8,64.6,29.95,SSW,197,0.0,0.0,78,0.00,CLR,SKC,0.00,WeatherDisplay:10.37,2013-08-09 03:45:00,
2013-08-08 22:51:00,71.7,64.8,29.95,South,170,0.7,2.3,79,0.00,CLR,SKC,0.00,WeatherDisplay:10.37,2013-08-09 03:51:00,
2013-08-08 22:56:00,71.6,64.7,29.95,SW,221,0.0,0.0,79,0.00,CLR,SKC,0.00,WeatherDisplay:10.37,2013-08-09 03:56:00,
2013-08-08 23:01:00,71.5,65.0,29.95,SW,220,0.0,0.0,80,0.00,CLR,SKC,0.00,WeatherDisplay:10.37,2013-08-09 04:01:00,
2013-08-08 23:06:00,71.4,65.3,29.96,SW,217,0.2,1.1,81,0.00,CLR,SKC,0.00,WeatherDisplay:10.37,2013-08-09 04:06:00,
2013-08-08 23:11:00,71.3,65.2,29.96,SW,218,0.0,0.0,81,0.00,CLR,SKC,0.00,WeatherDisplay:10.37,2013-08-09 04:11:00,
2013-08-08 23:16:00,71.2,65.4,29.96,SSW,210,0.0,0.0,82,0.00,CLR,SKC,0.00,WeatherDisplay:10.37,2013-08-09 04:16:00,
2013-08-08 23:21:00,71.1,65.3,29.96,South,177,0.0,0.0,82,0.00,CLR,SKC,0.00,WeatherDisplay:10.37,2013-08-09 04:21:00,
2013-08-08 23:26:00,71.0,65.2,29.96,SSE,152,1.1,2.3,82,0.00,CLR,SKC,0.00,WeatherDisplay:10.37,2013-08-09 04:26:00,
2013-08-08 23:31:00,70.9,65.5,29.96,SE,146,0.0,0.0,83,0.00,CLR,SKC,0.00,WeatherDisplay:10.37,2013-08-09 04:31:00,
2013-08-08 23:36:00,70.9,65.5,29.96,SSW,206,0.2,1.1,83,0.00,CLR,SKC,0.00,WeatherDisplay:10.37,2013-08-09 04:36:00,
2013-08-08 23:41:00,70.9,65.5,29.96,SW,222,1.1,2.3,83,0.00,CLR,SKC,0.00,WeatherDisplay:10.37,2013-08-09 04:41:00,
2013-08-08 23:46:00,70.9,65.5,29.97,SSW,206,0.8,2.0,83,0.00,CLR,SKC,0.00,WeatherDisplay:10.37,2013-08-09 04:46:00,
2013-08-08 23:51:00,70.8,65.4,29.96,SSE,153,0.4,1.1,83,0.00,CLR,SKC,0.00,WeatherDisplay:10.37,2013-08-09 04:51:00,
2013-08-08 23:56:00,70.7,65.3,29.96,SSE,150,0.0,0.0,83,0.00,CLR,SKC,0.00,WeatherDisplay:10.37,2013-08-09 04:56:00,